createdAt,value
2019-05-04T00:00:28.467Z,100235.12
2019-05-04T00:02:56.874Z,100232.86
2019-05-04T00:05:27.031Z,100230.77
2019-05-04T00:07:55.447Z,100231.94
2019-05-04T00:10:25.128Z,100232.57
2019-05-04T00:12:54.338Z,100223.44
2019-05-04T00:15:24.907Z,100226.36
2019-05-04T00:17:54.939Z,100225.36
2019-05-04T00:20:23.088Z,100220.19
2019-05-04T00:22:51.510Z,100224.09
2019-05-04T00:25:19.939Z,100220.70
2019-05-04T00:27:48.355Z,100220.81
2019-05-04T00:30:16.884Z,100221.02
2019-05-04T00:32:46.915Z,100212.55
2019-05-04T00:35:34.577Z,100208.45
2019-05-04T00:38:05.250Z,100203.29
2019-05-04T00:40:35.408Z,100205.80
2019-05-04T00:43:05.481Z,100204.48
2019-05-04T00:45:35.495Z,100202.97
2019-05-04T00:48:04.582Z,100204.04
2019-05-04T00:50:34.496Z,100206.34
2019-05-04T00:53:05.240Z,100207.09
2019-05-04T00:55:47.121Z,100221.27
2019-05-04T00:58:19.842Z,100215.93
2019-05-04T01:01:02.083Z,100219.53
2019-05-04T01:03:30.545Z,100219.23
2019-05-04T01:05:59.014Z,100224.78
2019-05-04T01:08:27.607Z,100236.84
2019-05-04T01:10:56.023Z,100223.87
2019-05-04T01:13:24.810Z,100230.83
2019-05-04T01:15:55.130Z,100226.00
2019-05-04T01:18:24.570Z,100224.42
2019-05-04T01:20:55.216Z,100223.08
2019-05-04T01:23:24.900Z,100223.91
2019-05-04T01:25:55.475Z,100223.33
2019-05-04T01:28:24.471Z,100225.17
2019-05-04T01:30:52.974Z,100224.11
2019-05-04T01:33:24.683Z,100223.82
2019-05-04T01:36:05.231Z,100222.82
2019-05-04T01:38:38.237Z,100218.87
2019-05-04T01:41:24.685Z,100221.13
2019-05-04T01:43:54.653Z,100211.77
2019-05-04T01:46:23.173Z,100212.83
2019-05-04T01:48:51.567Z,100216.91
2019-05-04T01:51:19.970Z,100216.87
2019-05-04T01:53:48.434Z,100224.72
2019-05-04T01:56:18.488Z,100217.08
2019-05-04T01:58:48.524Z,100219.24
2019-05-04T02:01:17.008Z,100213.67
2019-05-04T02:03:45.399Z,100214.60
2019-05-04T02:06:15.442Z,100218.54
2019-05-04T02:08:58.336Z,100219.13
2019-05-04T02:11:26.880Z,100218.23
2019-05-04T02:13:55.870Z,100216.89
2019-05-04T02:16:25.286Z,100224.02
2019-05-04T02:18:54.751Z,100220.21
2019-05-04T02:21:24.879Z,100219.66
2019-05-04T02:23:54.951Z,100231.25
2019-05-04T02:26:25.166Z,100226.44
2019-05-04T02:28:55.319Z,100222.82
2019-05-04T02:31:26.259Z,100215.52
2019-05-04T02:33:56.081Z,100223.56
2019-05-04T02:36:26.137Z,100229.76
2019-05-04T02:38:55.707Z,100231.77
2019-05-04T02:41:30.498Z,100234.91
2019-05-04T02:43:58.938Z,100233.71
2019-05-04T02:46:27.469Z,100233.52
2019-05-04T02:48:57.582Z,100240.22
2019-05-04T02:51:27.648Z,100235.11
2019-05-04T02:53:56.043Z,100239.24
2019-05-04T02:56:25.999Z,100236.38
2019-05-04T02:58:55.522Z,100230.75
2019-05-04T03:01:25.694Z,100236.48
2019-05-04T03:03:56.054Z,100232.91
2019-05-04T03:06:25.311Z,100229.59
2019-05-04T03:08:55.713Z,100231.17
2019-05-04T03:11:25.736Z,100234.02
2019-05-04T03:13:56.126Z,100235.77
2019-05-04T03:16:40.528Z,100230.26
2019-05-04T03:18:56.220Z,100225.20
2019-05-04T03:21:31.764Z,100221.27
2019-05-04T03:24:00.454Z,100222.12
2019-05-04T03:26:28.863Z,100224.29
2019-05-04T03:28:57.262Z,100224.41
2019-05-04T03:31:27.639Z,100214.27
2019-05-04T03:33:58.207Z,100209.31
2019-05-04T03:36:32.021Z,100212.76
2019-05-04T03:38:58.432Z,100211.27
2019-05-04T03:41:26.213Z,100208.20
2019-05-04T03:43:55.996Z,100211.30
2019-05-04T03:46:41.293Z,100218.97
2019-05-04T03:49:11.409Z,100223.96
2019-05-04T03:51:39.947Z,100220.23
2019-05-04T03:54:08.347Z,100218.45
2019-05-04T03:56:36.740Z,100213.16
2019-05-04T03:59:05.165Z,100220.53
2019-05-04T04:01:35.543Z,100207.76
2019-05-04T04:04:05.299Z,100196.69
2019-05-04T04:06:35.893Z,100192.70
2019-05-04T04:09:14.123Z,100182.30
2019-05-04T04:11:36.139Z,100171.19
2019-05-04T04:14:05.773Z,100190.28
2019-05-04T04:16:45.426Z,100190.05
2019-05-04T04:19:15.186Z,100193.78
2019-05-04T04:21:44.823Z,100200.31
2019-05-04T04:24:15.160Z,100200.75
2019-05-04T04:26:47.859Z,100209.96
2019-05-04T04:29:18.061Z,100211.56
2019-05-04T04:31:46.496Z,100212.75
2019-05-04T04:34:15.658Z,100215.17
2019-05-04T04:36:46.661Z,100214.83
2019-05-04T04:39:28.546Z,100217.63
2019-05-04T04:41:46.586Z,100216.20
2019-05-04T04:44:15.751Z,100225.59
2019-05-04T04:46:46.493Z,100220.80
2019-05-04T04:49:15.635Z,100220.53
2019-05-04T04:51:46.117Z,100218.27
2019-05-04T04:54:15.647Z,100215.89
2019-05-04T04:56:46.494Z,100223.98
2019-05-04T04:59:19.903Z,100215.58
2019-05-04T05:01:48.562Z,100215.32
2019-05-04T05:04:17.153Z,100228.27
2019-05-04T05:06:45.916Z,100227.03
2019-05-04T05:09:14.930Z,100226.92
2019-05-04T05:11:45.467Z,100229.91
2019-05-04T05:14:14.364Z,100240.30
2019-05-04T05:16:44.915Z,100237.53
2019-05-04T05:19:14.977Z,100244.38
2019-05-04T05:21:44.891Z,100239.88
2019-05-04T05:24:14.866Z,100242.34
2019-05-04T05:26:45.437Z,100241.23
2019-05-04T05:29:15.221Z,100243.47
2019-05-04T05:31:55.279Z,100239.59
2019-05-04T05:34:28.362Z,100237.28
2019-05-04T05:36:57.755Z,100240.02
2019-05-04T05:39:26.156Z,100241.32
2019-05-04T05:41:57.722Z,100238.67
2019-05-04T05:44:25.191Z,100242.81
2019-05-04T05:47:17.877Z,100242.40
2019-05-04T05:49:49.852Z,100242.36
2019-05-04T05:52:31.334Z,100241.69
2019-05-04T05:55:06.924Z,100234.45
2019-05-04T05:57:57.861Z,100246.69
2019-05-04T06:00:45.418Z,100245.83
2019-05-04T06:03:15.860Z,100242.52
2019-05-04T06:05:45.905Z,100240.68
2019-05-04T06:08:16.041Z,100242.92
2019-05-04T06:10:48.963Z,100242.23
2019-05-04T06:13:16.240Z,100241.11
2019-05-04T06:16:01.369Z,100242.42
2019-05-04T06:18:50.090Z,100247.11
2019-05-04T06:21:18.191Z,100247.94
2019-05-04T06:24:04.852Z,100250.59
2019-05-04T06:26:37.612Z,100252.66
2019-05-04T06:29:19.569Z,100250.68
2019-05-04T06:31:55.337Z,100251.27
2019-05-04T06:34:31.295Z,100253.96
2019-05-04T06:36:57.257Z,100255.30
2019-05-04T06:39:34.482Z,100249.14
2019-05-04T06:42:06.800Z,100246.64
2019-05-04T06:44:54.564Z,100234.25
2019-05-04T06:47:18.659Z,100239.91
2019-05-04T06:49:50.746Z,100247.05
2019-05-04T06:52:28.324Z,100241.34
2019-05-04T06:55:17.307Z,100239.06
2019-05-04T06:57:44.078Z,100246.61
2019-05-04T07:00:15.554Z,100254.22
2019-05-04T07:02:44.764Z,100251.95
2019-05-04T07:05:19.215Z,100247.11
2019-05-04T07:07:45.210Z,100245.47
2019-05-04T07:10:15.236Z,100244.58
2019-05-04T07:12:45.527Z,99889.27
2019-05-04T07:15:17.263Z,100257.70
2019-05-04T07:17:44.323Z,100248.33
2019-05-04T07:20:15.152Z,100249.87
2019-05-04T07:22:44.987Z,100245.58
2019-05-04T07:25:17.918Z,100248.91
2019-05-04T07:27:44.221Z,100252.00
2019-05-04T07:30:14.885Z,100247.13
2019-05-04T07:32:44.162Z,100244.96
2019-05-04T07:35:19.151Z,100241.16
2019-05-04T07:37:59.364Z,100239.83
2019-05-04T07:40:39.050Z,100245.20
2019-05-04T07:43:07.525Z,100241.33
2019-05-04T07:45:35.944Z,100237.30
2019-05-04T07:48:08.822Z,100233.36
2019-05-04T07:50:35.356Z,100239.08
2019-05-04T07:53:05.978Z,100242.00
2019-05-04T07:55:34.939Z,100252.34
2019-05-04T07:58:05.503Z,100240.09
2019-05-04T08:00:34.633Z,100238.69
2019-05-04T08:03:04.776Z,100234.19
2019-05-04T08:05:39.913Z,100230.66
2019-05-04T08:08:05.445Z,100230.67
2019-05-04T08:10:34.629Z,100233.83
2019-05-04T08:13:06.967Z,100235.55
2019-05-04T08:15:37.593Z,100230.20
2019-05-04T08:18:06.013Z,100230.79
2019-05-04T08:20:35.618Z,100229.40
2019-05-04T08:23:05.226Z,100230.37
2019-05-04T08:25:34.290Z,100230.58
2019-05-04T08:28:04.812Z,100220.48
2019-05-04T08:30:35.251Z,100221.13
2019-05-04T08:33:04.789Z,100215.65
2019-05-04T08:38:21.021Z,100215.14
2019-05-04T08:40:49.438Z,100220.42
2019-05-04T08:43:17.846Z,100213.65
2019-05-04T08:45:49.939Z,100211.83
2019-05-04T08:48:18.032Z,100210.20
2019-05-04T08:51:04.660Z,100206.90
2019-05-04T08:53:39.262Z,100213.54
2019-05-04T08:56:10.929Z,100214.59
2019-05-04T08:59:00.944Z,100213.33
2019-05-04T09:01:27.626Z,100212.50
2019-05-04T09:03:59.530Z,100209.67
2019-05-04T09:06:33.799Z,100212.38
2019-05-04T09:09:06.371Z,100212.41
2019-05-04T09:11:30.055Z,100215.22
2019-05-04T09:13:56.695Z,100218.61
2019-05-04T09:16:29.201Z,100201.16
2019-05-04T09:18:55.307Z,100198.57
2019-05-04T09:21:24.568Z,100200.67
2019-05-04T09:23:54.610Z,100209.80
2019-05-04T09:26:24.787Z,100210.45
2019-05-04T09:28:55.100Z,100206.48
2019-05-04T09:31:24.876Z,100200.59
2019-05-04T09:33:55.079Z,100191.84
2019-05-04T09:36:24.037Z,100194.75
2019-05-04T09:38:52.589Z,100196.02
2019-05-04T09:41:37.597Z,100204.54
2019-05-04T09:44:09.349Z,100205.02
2019-05-04T09:46:40.176Z,100204.45
2019-05-04T09:49:06.459Z,100208.03
2019-05-04T09:51:36.492Z,100214.27
2019-05-04T09:54:05.126Z,100230.89
2019-05-04T09:56:35.051Z,100261.08
2019-05-04T09:59:07.918Z,100265.23
2019-05-04T10:01:34.912Z,100257.42
2019-05-04T10:04:03.554Z,100281.91
2019-05-04T10:06:31.929Z,100300.31
2019-05-04T10:09:00.359Z,100282.19
2019-05-04T10:11:34.842Z,100262.24
2019-05-04T10:14:10.944Z,100265.81
2019-05-04T10:16:57.567Z,100271.23
2019-05-04T10:19:26.075Z,100266.16
2019-05-04T10:21:56.165Z,100265.23
2019-05-04T10:24:25.169Z,100261.61
2019-05-04T10:27:04.513Z,100264.13
2019-05-04T10:29:35.066Z,100261.55
2019-05-04T10:32:05.003Z,100255.27
2019-05-04T10:34:33.279Z,100249.23
2019-05-04T10:37:01.685Z,100250.97
2019-05-04T10:39:30.092Z,100242.34
2019-05-04T10:41:58.485Z,100238.15
2019-05-04T10:44:26.979Z,100242.25
2019-05-04T10:46:55.368Z,100229.02
2019-05-04T10:49:24.882Z,100227.05
2019-05-04T10:51:55.153Z,100208.14
2019-05-04T10:54:25.181Z,100204.83
2019-05-04T10:56:54.366Z,100211.56
2019-05-04T10:59:22.915Z,100206.72
2019-05-04T11:01:54.201Z,100199.84
2019-05-04T11:04:21.581Z,100201.52
2019-05-04T11:06:50.005Z,100197.14
2019-05-04T11:09:18.411Z,100203.82
2019-05-04T11:11:46.896Z,100210.54
2019-05-04T11:14:15.362Z,100224.45
2019-05-04T11:16:45.250Z,100217.83
2019-05-04T11:19:15.227Z,100213.50
2019-05-04T11:21:44.155Z,100206.44
2019-05-04T11:24:14.225Z,100202.82
2019-05-04T11:26:45.223Z,100193.19
2019-05-04T11:29:15.452Z,100197.02
2019-05-04T11:31:45.241Z,100198.79
2019-05-04T11:34:14.239Z,100218.39
2019-05-04T11:36:44.532Z,100200.55
2019-05-04T11:39:15.351Z,100206.53
2019-05-04T11:41:44.308Z,100035.94
2019-05-04T11:44:14.965Z,100205.15
2019-05-04T11:46:54.559Z,100225.55
2019-05-04T11:49:14.804Z,100204.22
2019-05-04T11:51:45.057Z,100212.17
2019-05-04T11:54:15.065Z,100212.61
2019-05-04T11:56:45.141Z,100207.91
2019-05-04T11:59:14.333Z,100196.31
2019-05-04T12:01:44.832Z,100200.80
2019-05-04T12:04:14.736Z,100204.38
2019-05-04T12:06:47.752Z,100198.88
2019-05-04T12:09:20.592Z,100185.26
2019-05-04T12:11:48.998Z,100207.14
2019-05-04T12:14:17.449Z,100212.23
2019-05-04T12:16:45.867Z,100225.78
2019-05-04T12:19:14.299Z,100233.36
2019-05-04T12:21:42.689Z,100258.33
2019-05-04T12:24:11.150Z,100248.73
2019-05-04T12:26:39.521Z,100268.28
2019-05-04T12:29:07.988Z,100244.94
2019-05-04T12:31:36.400Z,100243.86
2019-05-04T12:34:04.818Z,100265.13
2019-05-04T12:36:34.291Z,100257.07
2019-05-04T12:39:04.294Z,100272.11
2019-05-04T12:41:34.623Z,100245.76
2019-05-04T12:44:05.269Z,100268.88
2019-05-04T12:46:34.323Z,100249.07
2019-05-04T12:49:04.766Z,100263.67
2019-05-04T12:51:35.160Z,100262.20
2019-05-04T12:54:03.074Z,100258.61
2019-05-04T12:56:31.461Z,100274.65
2019-05-04T12:58:59.974Z,100281.81
2019-05-04T13:01:28.380Z,100276.55
2019-05-04T13:03:56.864Z,100285.14
2019-05-04T13:06:25.284Z,100302.80
2019-05-04T13:08:54.290Z,100298.27
2019-05-04T13:11:24.893Z,100286.02
2019-05-04T13:13:53.076Z,100292.64
2019-05-04T13:16:21.466Z,100288.58
2019-05-04T13:18:59.906Z,100301.68
2019-05-04T13:21:27.249Z,100294.78
2019-05-04T13:23:55.666Z,100294.91
2019-05-04T13:26:25.951Z,100307.39
2019-05-04T13:28:55.110Z,100322.91
2019-05-04T13:31:25.514Z,100328.14
2019-05-04T13:33:55.402Z,100314.09
2019-05-04T13:36:24.610Z,100326.32
2019-05-04T13:38:55.489Z,100319.67
2019-05-04T13:41:25.489Z,100314.88
2019-05-04T13:43:55.020Z,100327.59
2019-05-04T13:46:25.053Z,100327.94
2019-05-04T13:48:55.647Z,100323.67
2019-05-04T13:51:24.488Z,100329.73
2019-05-04T13:53:54.557Z,100343.42
2019-05-04T13:56:27.480Z,100322.61
2019-05-04T13:58:57.546Z,100319.08
2019-05-04T14:01:45.016Z,100315.45
2019-05-04T14:04:17.886Z,100312.25
2019-05-04T14:06:46.299Z,100312.57
2019-05-04T14:09:15.067Z,100317.50
2019-05-04T14:11:44.807Z,100307.03
2019-05-04T14:14:14.349Z,100310.41
2019-05-04T14:16:44.635Z,100305.75
2019-05-04T14:19:13.227Z,100303.77
2019-05-04T14:21:41.756Z,100292.77
2019-05-04T14:24:10.191Z,100293.66
2019-05-04T14:26:38.683Z,100299.19
2019-05-04T14:29:07.080Z,100182.67
2019-05-04T14:31:35.650Z,100297.96
2019-05-04T14:34:07.273Z,100307.11
2019-05-04T14:36:34.667Z,100288.09
2019-05-04T14:39:05.230Z,100302.77
2019-05-04T14:41:33.732Z,100297.54
2019-05-04T14:44:06.635Z,100304.55
2019-05-04T14:46:44.966Z,100315.67
2019-05-04T14:49:14.507Z,100303.05
2019-05-04T14:51:45.040Z,100305.41
2019-05-04T14:54:15.000Z,100318.06
2019-05-04T14:56:45.125Z,100324.73
2019-05-04T14:59:14.680Z,100323.74
2019-05-04T15:01:45.103Z,100323.72
2019-05-04T15:04:14.426Z,100322.59
2019-05-04T15:06:44.378Z,100334.19
2019-05-04T15:09:14.740Z,100331.89
2019-05-04T15:11:45.367Z,100327.93
2019-05-04T15:14:13.230Z,100354.72
2019-05-04T15:16:41.643Z,100355.06
2019-05-04T15:19:11.680Z,100373.65
2019-05-04T15:21:40.083Z,100380.12
2019-05-04T15:24:08.499Z,100381.73
2019-05-04T15:26:37.015Z,100391.67
2019-05-04T15:29:05.440Z,100395.02
2019-05-04T15:31:35.209Z,100395.41
2019-05-04T15:34:03.830Z,100394.94
2019-05-04T15:36:34.172Z,100384.52
2019-05-04T15:39:02.763Z,100385.73
2019-05-04T15:41:31.178Z,100377.95
2019-05-04T15:43:59.591Z,100387.86
2019-05-04T15:46:28.000Z,100385.88
2019-05-04T15:48:56.418Z,100379.25
2019-05-04T15:51:35.613Z,100384.45
2019-05-04T15:54:14.868Z,100379.59
2019-05-04T15:56:44.914Z,100375.69
2019-05-04T15:59:17.956Z,100376.84
2019-05-04T16:01:46.374Z,100380.28
2019-05-04T16:04:15.046Z,100380.70
2019-05-04T16:06:44.926Z,100382.83
2019-05-04T16:09:15.295Z,100382.12
2019-05-04T16:11:44.185Z,100387.05
2019-05-04T16:14:14.679Z,100386.05
2019-05-04T16:16:44.670Z,100388.91
2019-05-04T16:19:15.038Z,100390.34
2019-05-04T16:21:44.727Z,100391.92
2019-05-04T16:24:16.296Z,100386.66
2019-05-04T16:26:44.436Z,100381.17
2019-05-04T16:29:14.498Z,100369.07
2019-05-04T16:31:44.986Z,100375.89
2019-05-04T16:34:14.627Z,100372.92
2019-05-04T16:36:44.963Z,100380.30
2019-05-04T16:39:13.561Z,100406.41
2019-05-04T16:41:41.976Z,100435.16
2019-05-04T16:44:10.467Z,100434.27
2019-05-04T16:46:38.881Z,100444.44
2019-05-04T16:49:08.838Z,100458.67
2019-05-04T16:51:41.699Z,100473.30
2019-05-04T16:54:10.131Z,100481.86
2019-05-04T16:56:38.567Z,100485.63
2019-05-04T16:59:07.064Z,100472.67
2019-05-04T17:01:37.922Z,100460.09
2019-05-04T17:04:08.259Z,100455.66
2019-05-04T17:06:37.042Z,100466.22
2019-05-04T17:09:06.205Z,100470.55
2019-05-04T17:11:35.258Z,100477.99
2019-05-04T17:14:04.796Z,100484.59
2019-05-04T17:16:33.287Z,100489.84
2019-05-04T17:19:01.718Z,100489.84
2019-05-04T17:21:30.112Z,100492.09
2019-05-04T17:23:58.629Z,100490.52
2019-05-04T17:26:44.996Z,100495.17
2019-05-04T17:29:15.108Z,100505.89
2019-05-04T17:31:43.705Z,100513.42
2019-05-04T17:34:12.287Z,100529.78
2019-05-04T17:36:42.343Z,100537.86
2019-05-04T17:39:11.199Z,100541.54
2019-05-04T17:41:41.462Z,100538.27
2019-05-04T17:44:11.532Z,100548.67
2019-05-04T17:46:41.665Z,100554.88
2019-05-04T17:49:12.349Z,100561.97
2019-05-04T17:51:40.433Z,100573.42
2019-05-04T17:54:08.847Z,100574.48
2019-05-04T17:56:37.269Z,100577.06
2019-05-04T17:59:05.769Z,100580.75
2019-05-04T18:01:51.804Z,100581.58
2019-05-04T18:04:27.801Z,100589.59
2019-05-04T18:06:56.291Z,100581.89
2019-05-04T18:09:25.296Z,100576.87
2019-05-04T18:11:55.533Z,100581.89
2019-05-04T18:14:35.409Z,100587.97
2019-05-04T18:17:05.720Z,100594.55
2019-05-04T18:19:34.135Z,100599.05
2019-05-04T18:22:04.733Z,100605.61
2019-05-04T18:24:34.763Z,100605.54
2019-05-04T18:27:04.371Z,100613.37
2019-05-04T18:29:32.921Z,100620.75
2019-05-04T18:32:01.323Z,100626.87
2019-05-04T18:34:29.800Z,100625.31
2019-05-04T18:36:58.293Z,100628.28
2019-05-04T18:39:26.687Z,100634.95
2019-05-04T18:41:56.762Z,100637.70
2019-05-04T18:44:45.025Z,100641.74
2019-05-04T18:47:20.836Z,100647.09
2019-05-04T18:49:49.414Z,100650.24
2019-05-04T18:52:17.906Z,100649.56
2019-05-04T18:54:46.438Z,100650.27
2019-05-04T18:57:15.520Z,100651.02
2019-05-04T18:59:45.239Z,100656.63
2019-05-04T19:02:14.376Z,100668.23
2019-05-04T19:04:44.633Z,100679.30
2019-05-04T19:07:14.824Z,100678.81
2019-05-04T19:09:44.896Z,100686.61
2019-05-04T19:12:14.450Z,100683.39
2019-05-04T19:14:43.021Z,100691.03
2019-05-04T19:17:11.707Z,100694.63
2019-05-04T19:19:40.148Z,100702.09
2019-05-04T19:22:08.619Z,100704.26
2019-05-04T19:24:38.709Z,100707.87
2019-05-04T19:27:07.184Z,100713.28
2019-05-04T19:29:35.672Z,100719.10
2019-05-04T19:32:04.832Z,100715.00
2019-05-04T19:34:33.425Z,100725.79
2019-05-04T19:37:01.861Z,100727.52
2019-05-04T19:39:30.265Z,100726.24
2019-05-04T19:42:18.621Z,100734.06
2019-05-04T19:44:48.794Z,100745.54
2019-05-04T19:47:23.070Z,100746.89
2019-05-04T19:49:47.414Z,100753.58
2019-05-04T19:52:15.852Z,100762.75
2019-05-04T19:54:44.630Z,100766.54
2019-05-04T19:57:15.838Z,100776.35
2019-05-04T19:59:44.485Z,100775.80
2019-05-04T20:02:13.109Z,100772.30
2019-05-04T20:04:41.529Z,100786.60
2019-05-04T20:07:11.605Z,100779.97
2019-05-04T20:09:44.754Z,100775.52
2019-05-04T20:12:17.704Z,100789.17
2019-05-04T20:15:07.360Z,100782.26
2019-05-04T20:17:16.342Z,100775.87
2019-05-04T20:19:45.313Z,100783.91
2019-05-04T20:22:14.768Z,100788.05
2019-05-04T20:24:45.431Z,100796.77
2019-05-04T20:27:14.837Z,100802.30
2019-05-04T20:29:45.197Z,100798.88
2019-05-04T20:32:14.909Z,100801.42
2019-05-04T20:34:44.917Z,100804.41
2019-05-04T20:37:15.422Z,100808.64
2019-05-04T20:39:45.488Z,100816.44
2019-05-04T20:42:15.716Z,100807.45
2019-05-04T20:44:48.432Z,100814.99
2019-05-04T20:47:24.596Z,100817.75
2019-05-04T20:49:54.732Z,100829.33
2019-05-04T20:52:25.027Z,100830.26
2019-05-04T20:54:54.971Z,100837.03
2019-05-04T20:57:24.773Z,100838.30
2019-05-04T20:59:55.169Z,100842.48
2019-05-04T21:02:25.070Z,100842.34
2019-05-04T21:05:00.678Z,100847.52
2019-05-04T21:07:29.154Z,100849.36
2019-05-04T21:09:57.701Z,100847.73
2019-05-04T21:12:26.117Z,100845.19
2019-05-04T21:14:55.332Z,100856.25
2019-05-04T21:17:31.172Z,100855.73
2019-05-04T21:20:05.135Z,100863.25
2019-05-04T21:22:35.462Z,100859.70
2019-05-04T21:25:06.125Z,100857.12
2019-05-04T21:27:34.599Z,100861.53
2019-05-04T21:30:05.110Z,100862.67
2019-05-04T21:32:34.973Z,100868.35
2019-05-04T21:35:05.116Z,100876.38
2019-05-04T21:37:35.157Z,100877.69
2019-05-04T21:40:10.348Z,100874.55
2019-05-04T21:42:37.789Z,100881.84
2019-05-04T21:45:18.187Z,100883.20
2019-05-04T21:47:55.277Z,100886.86
2019-05-04T21:50:31.359Z,100891.44
2019-05-04T21:52:59.839Z,100894.03
2019-05-04T21:55:28.290Z,100900.94
2019-05-04T21:57:56.769Z,100899.42
2019-05-04T22:00:45.400Z,100905.45
2019-05-04T22:03:35.079Z,100906.02
2019-05-04T22:06:05.051Z,100901.50
2019-05-04T22:08:33.577Z,100913.06
2019-05-04T22:11:04.155Z,100913.52
2019-05-04T22:13:34.900Z,100916.73
2019-05-04T22:16:05.214Z,100919.36
2019-05-04T22:18:34.813Z,100913.82
2019-05-04T22:21:05.301Z,100918.95
2019-05-04T22:23:35.148Z,100921.89
2019-05-04T22:26:04.659Z,100924.13
2019-05-04T22:28:33.206Z,100918.95
2019-05-04T22:31:01.755Z,100924.13
2019-05-04T22:33:30.241Z,100925.54
2019-05-04T22:36:00.275Z,100923.16
2019-05-04T22:38:35.001Z,100925.94
2019-05-04T22:41:05.119Z,100928.93
2019-05-04T22:43:34.260Z,100928.42
2019-05-04T22:46:02.707Z,100936.63
2019-05-04T22:48:45.376Z,100934.98
2019-05-04T22:51:01.252Z,100935.53
2019-05-04T22:53:31.381Z,100936.69
2019-05-04T22:56:01.435Z,100940.31
2019-05-04T22:58:34.770Z,100942.21
2019-05-04T23:01:05.302Z,100943.42
2019-05-04T23:03:35.437Z,100941.98
2019-05-04T23:06:04.361Z,100945.79
2019-05-04T23:08:32.812Z,100950.08
2019-05-04T23:11:01.241Z,100955.44
2019-05-04T23:13:29.704Z,100952.88
2019-05-04T23:15:58.183Z,100955.81
2019-05-04T23:18:26.631Z,100956.16
2019-05-04T23:20:55.219Z,100957.56
2019-05-04T23:23:24.924Z,100963.61
2019-05-04T23:25:53.631Z,100967.34
2019-05-04T23:28:22.015Z,100967.22
2019-05-04T23:30:50.453Z,100971.77
2019-05-04T23:33:18.837Z,100966.55
2019-05-04T23:35:47.263Z,100968.63
2019-05-04T23:38:15.656Z,100972.37
2019-05-04T23:40:45.222Z,100972.94
2019-05-04T23:43:14.445Z,100977.96
2019-05-04T23:45:44.215Z,100978.53
2019-05-04T23:48:17.895Z,100975.59
2019-05-04T23:50:46.398Z,100980.94
2019-05-04T23:53:14.914Z,100979.00
2019-05-04T23:55:45.512Z,100976.47
2019-05-04T23:58:15.727Z,100974.73
